Navilleton, Indiana
Current Conditions -  °F | °C
As of 8:56 AM on Wednesday 28 Jan 2015 (Local Time) from KSDF Reporting Station
Haze Haze  
Wind Chill: 14°   Ceiling: Unl
Heat Index: 22°   Visibility: 4mi
Dew Point: 15°   Wind: 6mph
Humidity: 75%   Direction: 120°ESE
Pressure: 30.39"   Gusts: NA
Location:  38.3602°N, 85.8979°W
Report Text: KSDF 281356Z 12005KT 4SM HZ FEW250 M06/M09 A3039 RMK AO2 SLP296 T10561094
Loading
Personal Weather Stations






























Interactive Weather Map New forecast layout! Learn more

10-Day Weather Forecast

Advertisements
Track Severe Weather on mobile